createdAt,value
2022-09-12T00:01:08.818Z,1.70
2022-09-12T00:03:35.968Z,1.48
2022-09-12T00:06:28.713Z,1.83
2022-09-12T00:09:01.833Z,1.30
2022-09-12T00:11:29.182Z,1.70
2022-09-12T00:13:58.299Z,1.70
2022-09-12T00:16:26.570Z,2.05
2022-09-12T00:18:53.800Z,1.70
2022-09-12T00:21:25.450Z,2.33
2022-09-12T00:26:19.379Z,1.60
2022-09-12T00:28:49.775Z,1.50
2022-09-12T00:31:19.147Z,1.42
2022-09-12T00:39:28.177Z,1.92
2022-09-12T00:41:54.982Z,1.60
2022-09-12T00:44:21.594Z,2.10
2022-09-12T00:46:57.379Z,2.45
2022-09-12T00:49:32.645Z,1.88
2022-09-12T00:52:08.435Z,2.05
2022-09-12T00:54:43.222Z,2.10
2022-09-12T00:57:13.363Z,1.83
2022-09-12T00:59:43.468Z,1.98
2022-09-12T01:02:12.894Z,1.73
2022-09-12T01:04:40.919Z,1.38
2022-09-12T01:07:13.014Z,1.92
2022-09-12T01:09:40.248Z,1.90
2022-09-12T01:12:06.991Z,2.33
2022-09-12T01:14:34.948Z,2.30
2022-09-12T01:17:01.784Z,2.17
2022-09-12T01:20:00.824Z,2.20
2022-09-12T01:22:56.121Z,1.55
2022-09-12T01:25:28.729Z,1.98
2022-09-12T01:27:55.395Z,1.90
2022-09-12T01:30:42.945Z,1.70
2022-09-12T01:33:34.070Z,2.10
2022-09-12T01:36:35.810Z,1.85
2022-09-12T01:39:05.258Z,2.17
2022-09-12T01:41:40.271Z,2.05
2022-09-12T01:44:34.135Z,2.50
2022-09-12T01:47:16.434Z,1.60
2022-09-12T01:49:43.068Z,1.80
2022-09-12T01:52:44.906Z,1.85
2022-09-12T01:55:35.321Z,1.70
2022-09-12T01:58:23.162Z,1.67
2022-09-12T02:01:05.032Z,1.83
2022-09-12T02:03:35.067Z,1.67
2022-09-12T02:06:13.265Z,1.60
2022-09-12T02:08:50.232Z,1.70
2022-09-12T02:11:17.248Z,1.90
2022-09-12T02:13:52.784Z,1.85
2022-09-12T02:16:24.241Z,1.75
2022-09-12T02:18:57.547Z,2.05
2022-09-12T02:21:32.941Z,1.95
2022-09-12T02:24:02.759Z,2.00
2022-09-12T02:26:35.638Z,2.65
2022-09-12T02:29:03.454Z,2.85
2022-09-12T02:31:42.343Z,2.70
2022-09-12T02:34:39.936Z,2.33
2022-09-12T02:37:18.690Z,3.13
2022-09-12T02:39:45.710Z,3.10
2022-09-12T02:42:12.775Z,3.80
2022-09-12T02:44:39.772Z,3.60
2022-09-12T02:47:16.792Z,2.97
2022-09-12T02:49:43.807Z,3.22
2022-09-12T02:52:10.514Z,3.53
2022-09-12T02:54:38.302Z,3.63
2022-09-12T02:57:14.936Z,3.30
2022-09-12T02:59:43.867Z,4.30
2022-09-12T03:02:16.431Z,4.18
2022-09-12T03:05:09.355Z,3.97
2022-09-12T03:07:48.967Z,4.00
2022-09-12T03:10:28.959Z,3.90
2022-09-12T03:13:08.035Z,4.20
2022-09-12T03:15:48.551Z,4.07
2022-09-12T03:18:30.033Z,4.28
2022-09-12T03:21:02.643Z,3.67
2022-09-12T03:23:40.778Z,3.45
2022-09-12T03:26:21.754Z,3.40
2022-09-12T03:28:59.560Z,3.88
2022-09-12T03:31:57.889Z,3.58
2022-09-12T03:34:27.888Z,2.50
2022-09-12T03:36:57.151Z,3.35
2022-09-12T03:41:55.963Z,3.22
2022-09-12T03:44:25.343Z,2.72
2022-09-12T03:47:35.233Z,2.60
2022-09-12T03:50:24.690Z,2.58
2022-09-12T03:52:51.964Z,2.65
2022-09-12T03:55:19.379Z,2.88
2022-09-12T03:57:49.622Z,3.55
2022-09-12T04:00:21.534Z,2.88
2022-09-12T04:02:48.831Z,3.08
2022-09-12T04:05:21.210Z,3.38
2022-09-12T04:07:47.981Z,2.90
2022-09-12T04:10:17.313Z,3.65
2022-09-12T04:17:42.471Z,3.20
2022-09-12T04:22:40.913Z,2.53
2022-09-12T04:25:16.961Z,2.88
2022-09-12T04:27:52.930Z,2.75
2022-09-12T04:30:22.966Z,2.60
2022-09-12T04:32:53.523Z,3.13
2022-09-12T04:35:43.365Z,2.45
2022-09-12T04:38:35.101Z,3.13
2022-09-12T04:41:23.611Z,3.30
2022-09-12T04:44:43.304Z,3.00
2022-09-12T04:47:16.892Z,3.03
2022-09-12T04:50:17.921Z,3.30
2022-09-12T04:52:52.047Z,3.38
2022-09-12T04:55:19.468Z,3.20
2022-09-12T04:57:49.270Z,3.60
2022-09-12T05:00:19.619Z,2.97
2022-09-12T05:02:51.607Z,3.55
2022-09-12T05:05:18.364Z,3.20
2022-09-12T05:07:49.754Z,3.03
2022-09-12T05:10:16.546Z,3.22
2022-09-12T05:12:48.643Z,2.90
2022-09-12T05:15:15.328Z,2.53
2022-09-12T05:17:46.592Z,2.65
2022-09-12T05:20:13.320Z,2.85
2022-09-12T05:22:42.419Z,2.20
2022-09-12T05:25:11.847Z,1.98
2022-09-12T05:27:40.782Z,2.00
2022-09-12T05:30:10.293Z,2.28
2022-09-12T05:32:37.029Z,2.22
2022-09-12T05:35:06.791Z,2.10
2022-09-12T05:37:33.456Z,2.70
2022-09-12T05:40:00.281Z,3.22
2022-09-12T05:42:29.924Z,3.42
2022-09-12T05:45:01.989Z,5.78
2022-09-12T05:47:28.806Z,3.72
2022-09-12T05:49:59.139Z,5.35
2022-09-12T05:52:26.550Z,5.55
2022-09-12T05:54:55.720Z,4.65
2022-09-12T05:57:22.399Z,4.18
2022-09-12T05:59:49.762Z,4.20
2022-09-12T06:02:16.409Z,4.75
2022-09-12T06:04:43.711Z,4.15
2022-09-12T06:07:15.196Z,4.13
2022-09-12T06:09:42.272Z,3.75
2022-09-12T06:12:08.965Z,4.25
2022-09-12T06:14:39.064Z,4.43
2022-09-12T06:17:05.861Z,4.32
2022-09-12T06:19:32.590Z,4.38
2022-09-12T06:21:59.690Z,4.28
2022-09-12T06:24:26.372Z,5.22
2022-09-12T06:26:53.226Z,3.97
2022-09-12T06:29:20.247Z,4.50
2022-09-12T06:31:48.997Z,4.13
2022-09-12T06:34:18.237Z,4.25
2022-09-12T06:36:47.219Z,4.53
2022-09-12T06:39:19.263Z,3.92
2022-09-12T06:41:46.575Z,3.72
2022-09-12T06:44:18.803Z,4.30
2022-09-12T06:46:48.898Z,4.20
2022-09-12T06:49:18.063Z,4.00
2022-09-12T06:51:44.882Z,4.30
2022-09-12T06:54:16.753Z,4.18
2022-09-12T06:56:46.280Z,4.00
2022-09-12T06:59:13.117Z,4.10
2022-09-12T07:01:41.204Z,4.30
2022-09-12T07:04:10.164Z,4.55
2022-09-12T07:06:41.517Z,4.03
2022-09-12T07:09:11.855Z,4.50
2022-09-12T07:11:40.294Z,4.40
2022-09-12T07:14:08.452Z,4.80
2022-09-12T07:16:38.373Z,5.03
2022-09-12T07:19:08.160Z,4.53
2022-09-12T07:21:40.647Z,4.65
2022-09-12T07:24:10.611Z,4.35
2022-09-12T07:26:38.435Z,4.13
2022-09-12T07:29:32.797Z,4.03
2022-09-12T07:31:56.539Z,3.40
2022-09-12T07:34:23.236Z,3.47
2022-09-12T07:36:49.895Z,3.05
2022-09-12T07:39:16.579Z,3.55
2022-09-12T07:41:45.566Z,3.50
2022-09-12T07:44:14.460Z,3.22
2022-09-12T07:46:41.445Z,3.38
2022-09-12T07:49:08.539Z,3.17
2022-09-12T07:51:37.827Z,3.38
2022-09-12T07:54:09.221Z,3.78
2022-09-12T07:56:39.242Z,2.78
2022-09-12T07:59:06.803Z,2.60
2022-09-12T08:01:33.677Z,2.95
2022-09-12T08:04:00.688Z,2.63
2022-09-12T08:06:30.357Z,3.10
2022-09-12T08:08:58.240Z,3.25
2022-09-12T08:11:26.333Z,2.92
2022-09-12T08:13:57.209Z,3.40
2022-09-12T08:16:27.017Z,3.03
2022-09-12T08:18:54.132Z,2.55
2022-09-12T08:21:29.755Z,3.03
2022-09-12T08:24:01.631Z,2.80
2022-09-12T08:26:33.697Z,3.00
2022-09-12T08:29:02.629Z,3.20
2022-09-12T08:31:36.493Z,3.20
2022-09-12T08:34:05.541Z,3.30
2022-09-12T08:36:34.983Z,2.83
2022-09-12T08:39:04.791Z,2.33
2022-09-12T08:41:42.322Z,2.05
2022-09-12T08:44:12.259Z,2.20
2022-09-12T08:46:48.680Z,2.70
2022-09-12T08:49:42.140Z,2.15
2022-09-12T08:52:27.004Z,2.00
2022-09-12T08:54:55.014Z,2.03
2022-09-12T08:57:24.594Z,1.83
2022-09-12T08:59:51.675Z,1.40
2022-09-12T09:02:40.417Z,1.65
2022-09-12T09:05:11.957Z,1.35
2022-09-12T09:07:38.637Z,1.55
2022-09-12T09:10:24.883Z,1.20
2022-09-12T09:13:01.975Z,1.27
2022-09-12T09:15:41.333Z,1.27
2022-09-12T09:18:19.462Z,1.90
2022-09-12T09:20:53.416Z,1.23
2022-09-12T09:23:32.124Z,1.63
2022-09-12T09:26:07.284Z,1.27
2022-09-12T09:28:40.194Z,1.00
2022-09-12T09:31:17.723Z,0.98
2022-09-12T09:33:49.577Z,1.00
2022-09-12T09:36:35.116Z,1.40
2022-09-12T09:39:06.367Z,0.85
2022-09-12T09:41:40.981Z,0.90
2022-09-12T09:46:34.673Z,0.90
2022-09-12T09:49:04.142Z,0.98
2022-09-12T09:51:37.046Z,0.60
2022-09-12T09:54:13.503Z,0.73
2022-09-12T09:59:28.341Z,0.70
2022-09-12T10:02:04.105Z,0.75
2022-09-12T10:04:41.430Z,1.20
2022-09-12T10:07:21.777Z,0.93
2022-09-12T10:10:07.175Z,1.05
2022-09-12T10:12:38.807Z,0.77
2022-09-12T10:15:34.822Z,0.63
2022-09-12T10:18:04.469Z,0.85
2022-09-12T10:20:43.221Z,0.60
2022-09-12T10:23:21.485Z,0.70
2022-09-12T10:25:53.834Z,0.77
2022-09-12T10:28:40.972Z,0.50
2022-09-12T10:31:14.372Z,0.77
2022-09-12T10:33:47.447Z,0.70
2022-09-12T10:36:17.432Z,0.60
2022-09-12T10:38:50.660Z,0.60
2022-09-12T10:41:17.899Z,0.70
2022-09-12T10:43:47.069Z,0.50
2022-09-12T10:46:22.393Z,1.10
2022-09-12T10:48:51.137Z,0.65
2022-09-12T10:51:23.926Z,0.65
2022-09-12T10:54:12.764Z,0.73
2022-09-12T10:56:52.774Z,0.80
2022-09-12T10:59:34.419Z,0.80
2022-09-12T11:02:21.501Z,0.60
2022-09-12T11:05:04.306Z,0.60
2022-09-12T11:07:39.660Z,0.63
2022-09-12T11:10:15.276Z,0.70
2022-09-12T11:13:14.378Z,0.50
2022-09-12T11:16:35.525Z,0.60
2022-09-12T11:19:35.860Z,0.50
2022-09-12T11:22:17.563Z,0.57
2022-09-12T11:25:22.410Z,0.50
2022-09-12T11:28:17.108Z,0.55
2022-09-12T11:30:59.911Z,0.50
2022-09-12T11:33:44.635Z,0.60
2022-09-12T11:36:27.587Z,0.40
2022-09-12T11:39:03.753Z,0.50
2022-09-12T11:41:35.373Z,0.40
2022-09-12T11:44:05.191Z,0.60
2022-09-12T11:46:34.376Z,0.50
2022-09-12T11:49:13.362Z,0.60
2022-09-12T11:54:25.383Z,0.63
2022-09-12T11:57:01.835Z,1.15
2022-09-12T11:59:43.635Z,0.90
2022-09-12T12:02:26.957Z,0.70
2022-09-12T12:05:22.785Z,0.85
2022-09-12T12:07:58.338Z,0.80
2022-09-12T12:10:28.933Z,0.60
2022-09-12T12:12:56.863Z,0.73
2022-09-12T12:15:25.269Z,0.60
2022-09-12T12:18:22.131Z,0.63
2022-09-12T12:20:50.304Z,0.70
2022-09-12T12:23:26.291Z,0.53
2022-09-12T12:25:56.547Z,1.30
2022-09-12T12:28:52.780Z,0.52
2022-09-12T12:31:19.537Z,0.68
2022-09-12T12:33:46.346Z,0.50
2022-09-12T12:36:38.543Z,0.70
2022-09-12T12:39:33.268Z,0.98
2022-09-12T12:42:00.735Z,0.52
2022-09-12T12:44:48.621Z,0.60
2022-09-12T12:47:22.355Z,0.68
2022-09-12T12:49:56.376Z,0.60
2022-09-12T12:52:31.812Z,0.60
2022-09-12T12:55:16.124Z,0.60
2022-09-12T12:57:51.212Z,0.50
2022-09-12T13:00:21.091Z,0.50
2022-09-12T13:03:09.025Z,0.60
2022-09-12T13:05:51.721Z,0.60
2022-09-12T13:08:20.835Z,0.52
2022-09-12T13:10:58.052Z,0.52
2022-09-12T13:13:36.785Z,0.40
2022-09-12T13:18:46.489Z,0.30
2022-09-12T13:21:20.771Z,0.77
2022-09-12T13:24:05.763Z,0.40
2022-09-12T13:26:41.735Z,0.30
2022-09-12T13:29:28.100Z,0.50
2022-09-12T13:31:56.225Z,0.50
2022-09-12T13:34:28.113Z,0.60
2022-09-12T13:37:40.255Z,0.30
2022-09-12T13:41:02.305Z,0.50
2022-09-12T13:43:47.028Z,0.50
2022-09-12T13:46:30.480Z,0.50
2022-09-12T13:49:05.018Z,0.40
2022-09-12T13:51:32.548Z,0.40
2022-09-12T13:54:03.584Z,0.70
2022-09-12T13:56:33.254Z,0.40
2022-09-12T13:59:02.515Z,0.30
2022-09-12T14:01:43.516Z,0.40
2022-09-12T14:04:41.071Z,0.20
2022-09-12T14:07:17.182Z,0.60
2022-09-12T14:09:47.612Z,0.40
2022-09-12T14:12:21.998Z,0.55
2022-09-12T14:14:50.276Z,0.28
2022-09-12T14:17:31.699Z,0.28
2022-09-12T14:20:07.121Z,0.28
2022-09-12T14:22:36.442Z,0.20
2022-09-12T14:25:03.159Z,0.20
2022-09-12T14:27:43.111Z,0.30
2022-09-12T14:30:39.071Z,0.28
2022-09-12T14:33:11.931Z,4.68
2022-09-12T14:35:45.210Z,0.50
2022-09-12T14:38:11.912Z,0.30
2022-09-12T14:40:46.499Z,0.47
2022-09-12T14:43:33.636Z,0.20
2022-09-12T14:46:14.808Z,0.20
2022-09-12T14:48:49.052Z,0.30
2022-09-12T14:51:25.344Z,0.20
2022-09-12T14:53:52.059Z,0.20
2022-09-12T14:56:22.259Z,0.20
2022-09-12T14:58:49.484Z,0.32
2022-09-12T15:01:16.172Z,0.50
2022-09-12T15:03:49.538Z,0.30
2022-09-12T15:06:37.705Z,0.38
2022-09-12T15:09:08.920Z,0.20
2022-09-12T15:11:35.609Z,0.15
2022-09-12T15:14:17.468Z,0.25
2022-09-12T15:16:48.946Z,0.30
2022-09-12T15:19:15.822Z,0.20
2022-09-12T15:21:45.027Z,0.20
2022-09-12T15:24:14.087Z,0.13
2022-09-12T15:26:40.749Z,0.28
2022-09-12T15:29:07.587Z,0.20
2022-09-12T15:31:34.299Z,0.20
2022-09-12T15:34:02.455Z,0.20
2022-09-12T15:36:29.405Z,0.35
2022-09-12T15:38:59.164Z,0.28
2022-09-12T15:41:35.892Z,0.10
2022-09-12T15:44:08.429Z,0.10
2022-09-12T15:46:38.000Z,0.20
2022-09-12T15:49:07.242Z,0.17
2022-09-12T15:51:36.794Z,0.20
2022-09-12T15:54:04.393Z,0.20
2022-09-12T15:56:31.086Z,0.20
2022-09-12T15:59:02.444Z,0.20
2022-09-12T16:01:31.308Z,0.20
2022-09-12T16:04:03.120Z,0.20
2022-09-12T16:06:36.259Z,0.20
2022-09-12T16:09:05.910Z,0.30
2022-09-12T16:11:33.095Z,0.20
2022-09-12T16:14:00.058Z,0.20
2022-09-12T16:16:29.044Z,0.32
2022-09-12T16:18:55.731Z,0.25
2022-09-12T16:21:22.459Z,0.20
2022-09-12T16:23:49.501Z,0.30
2022-09-12T16:26:19.057Z,0.30
2022-09-12T16:28:48.205Z,0.30
2022-09-12T16:31:15.040Z,0.50
2022-09-12T16:33:46.437Z,0.60
2022-09-12T16:36:15.492Z,0.30
2022-09-12T16:38:47.481Z,0.25
2022-09-12T16:41:17.871Z,0.40
2022-09-12T16:43:47.626Z,0.35
2022-09-12T16:46:20.211Z,0.40
2022-09-12T16:48:54.933Z,0.30
2022-09-12T16:51:26.907Z,0.40
2022-09-12T16:53:59.315Z,0.30
2022-09-12T16:56:26.257Z,0.30
2022-09-12T16:58:53.106Z,0.40
2022-09-12T17:01:25.343Z,0.40
2022-09-12T17:03:54.140Z,0.30
2022-09-12T17:06:20.981Z,0.30
2022-09-12T17:08:49.927Z,0.20
2022-09-12T17:14:06.065Z,0.40
2022-09-12T17:16:38.281Z,0.32
2022-09-12T17:19:06.000Z,0.40
2022-09-12T17:21:32.882Z,0.50
2022-09-12T17:24:01.788Z,0.30
2022-09-12T17:26:28.515Z,0.40
2022-09-12T17:28:55.242Z,0.30
2022-09-12T17:31:22.136Z,0.20
2022-09-12T17:33:56.065Z,0.40
2022-09-12T17:36:23.213Z,0.35
2022-09-12T17:38:51.496Z,0.30
2022-09-12T17:41:23.405Z,0.77
2022-09-12T17:43:55.696Z,0.98
2022-09-12T17:46:24.220Z,0.82
2022-09-12T17:48:56.517Z,0.60
2022-09-12T17:51:30.968Z,0.70
2022-09-12T17:53:59.161Z,0.80
2022-09-12T17:56:28.126Z,0.30
2022-09-12T17:59:01.165Z,0.40
2022-09-12T18:01:49.428Z,0.40
2022-09-12T18:04:16.867Z,0.38
2022-09-12T18:06:47.905Z,0.50
2022-09-12T18:09:18.032Z,0.20
2022-09-12T18:11:45.219Z,0.32
2022-09-12T18:14:14.221Z,0.40
2022-09-12T18:16:41.945Z,0.40
2022-09-12T18:19:11.237Z,0.25
2022-09-12T18:21:40.219Z,0.30
2022-09-12T18:24:06.975Z,2.70
2022-09-12T18:26:37.183Z,0.40
2022-09-12T18:29:06.392Z,0.30
2022-09-12T18:31:35.748Z,0.50
2022-09-12T18:34:06.313Z,0.30
2022-09-12T18:36:38.275Z,0.40
2022-09-12T18:39:07.376Z,0.30
2022-09-12T18:41:36.732Z,0.40
2022-09-12T18:44:04.672Z,0.30
2022-09-12T18:46:33.049Z,0.40
2022-09-12T18:49:00.283Z,0.50
2022-09-12T18:51:31.746Z,0.40
2022-09-12T18:54:00.816Z,0.40
2022-09-12T18:56:32.494Z,0.50
2022-09-12T18:59:02.068Z,0.50
2022-09-12T19:01:34.074Z,0.40
2022-09-12T19:04:07.669Z,0.60
2022-09-12T19:06:39.411Z,0.30
2022-09-12T19:09:10.167Z,0.60
2022-09-12T19:11:43.119Z,0.75
2022-09-12T19:14:09.867Z,0.60
2022-09-12T19:16:37.016Z,0.35
2022-09-12T19:19:04.192Z,0.50
2022-09-12T19:21:31.742Z,0.90
2022-09-12T19:24:11.327Z,0.65
2022-09-12T19:26:39.163Z,1.02
2022-09-12T19:29:06.498Z,0.50
2022-09-12T19:31:35.533Z,0.50
2022-09-12T19:34:04.368Z,0.50
2022-09-12T19:36:47.671Z,0.68
2022-09-12T19:39:16.359Z,0.60
2022-09-12T19:41:44.003Z,0.50
2022-09-12T19:44:13.608Z,0.50
2022-09-12T19:46:45.522Z,0.43
2022-09-12T19:49:12.895Z,0.60
2022-09-12T19:51:39.971Z,0.50
2022-09-12T19:54:07.870Z,1.50
2022-09-12T19:56:34.841Z,0.75
2022-09-12T19:59:01.780Z,0.80
2022-09-12T20:01:29.016Z,0.75
2022-09-12T20:03:57.212Z,0.57
2022-09-12T20:06:26.372Z,0.60
2022-09-12T20:11:21.748Z,0.50
2022-09-12T20:13:48.469Z,0.70
2022-09-12T20:16:21.617Z,0.50
2022-09-12T20:18:56.674Z,0.60
2022-09-12T20:21:31.643Z,0.70
2022-09-12T20:24:10.362Z,0.60
2022-09-12T20:26:37.817Z,0.55
2022-09-12T20:29:05.788Z,0.63
2022-09-12T20:31:33.430Z,0.80
2022-09-12T20:34:00.500Z,0.70
2022-09-12T20:36:27.342Z,0.68
2022-09-12T20:38:56.991Z,0.40
2022-09-12T20:41:25.011Z,1.55
2022-09-12T20:43:55.865Z,0.80
2022-09-12T20:46:26.452Z,0.55
2022-09-12T20:48:53.522Z,0.90
2022-09-12T20:51:21.489Z,0.80
2022-09-12T20:53:48.545Z,0.70
2022-09-12T20:56:17.800Z,0.43
2022-09-12T20:58:47.315Z,0.70
2022-09-12T21:01:15.821Z,0.60
2022-09-12T21:03:43.360Z,1.38
2022-09-12T21:06:12.874Z,0.80
2022-09-12T21:08:39.822Z,1.05
2022-09-12T21:11:07.212Z,0.75
2022-09-12T21:13:33.970Z,0.70
2022-09-12T21:16:15.874Z,0.47
2022-09-12T21:18:44.898Z,0.80
2022-09-12T21:21:15.385Z,1.20
2022-09-12T21:23:42.187Z,0.90
2022-09-12T21:26:11.211Z,0.70
2022-09-12T21:28:37.898Z,1.13
2022-09-12T21:31:05.244Z,0.60
2022-09-12T21:33:31.970Z,0.77
2022-09-12T21:36:05.624Z,0.50
2022-09-12T21:38:32.933Z,0.88
2022-09-12T21:41:07.790Z,0.85
2022-09-12T21:43:35.108Z,0.63
2022-09-12T21:46:07.718Z,0.70
2022-09-12T21:48:35.133Z,0.70
2022-09-12T21:51:02.599Z,0.82
2022-09-12T21:53:29.552Z,0.98
2022-09-12T21:56:03.943Z,0.70
2022-09-12T21:58:31.227Z,0.77
2022-09-12T22:01:03.601Z,0.70
2022-09-12T22:03:30.817Z,0.85
2022-09-12T22:06:01.923Z,0.60
2022-09-12T22:08:32.687Z,0.63
2022-09-12T22:11:02.084Z,0.80
2022-09-12T22:13:32.119Z,1.08
2022-09-12T22:16:03.177Z,0.50
2022-09-12T22:18:34.839Z,0.80
2022-09-12T22:21:06.513Z,1.02
2022-09-12T22:23:51.614Z,1.95
2022-09-12T22:26:20.752Z,1.27
2022-09-12T22:28:50.123Z,0.90
2022-09-12T22:31:17.471Z,0.82
2022-09-12T22:33:46.743Z,0.73
2022-09-12T22:38:40.527Z,0.90
2022-09-12T22:41:10.005Z,0.70
2022-09-12T22:43:41.904Z,0.60
2022-09-12T22:46:14.969Z,0.85
2022-09-12T22:48:41.914Z,0.70
2022-09-12T22:51:17.038Z,0.80
2022-09-12T22:53:46.825Z,1.00
2022-09-12T22:56:16.241Z,0.82
2022-09-12T23:01:10.570Z,0.90
2022-09-12T23:03:40.132Z,0.95
2022-09-12T23:06:07.399Z,1.25
2022-09-12T23:08:35.781Z,1.23
2022-09-12T23:11:04.743Z,1.33
2022-09-12T23:13:33.721Z,0.77
2022-09-12T23:16:01.658Z,1.10
2022-09-12T23:18:33.721Z,1.10
2022-09-12T23:21:02.432Z,0.68
2022-09-12T23:23:31.780Z,0.70
2022-09-12T23:26:02.285Z,0.90
2022-09-12T23:28:29.315Z,0.90
2022-09-12T23:30:56.750Z,1.10
2022-09-12T23:33:23.592Z,1.10
2022-09-12T23:35:52.584Z,0.98
2022-09-12T23:38:21.900Z,1.30
2022-09-12T23:43:19.971Z,0.98
2022-09-12T23:45:49.395Z,0.98
2022-09-12T23:48:16.093Z,1.15
2022-09-12T23:50:47.110Z,1.02
2022-09-12T23:53:14.970Z,1.13
2022-09-12T23:55:41.900Z,1.10
2022-09-12T23:58:10.737Z,1.30
